sensor_id;sensor_type;location;lat;lon;timestamp;pressure;altitude;pressure_sealevel;temperature
65600;BMP280;52272;-29.642;-50.764;2022-08-19T00:01:00;101652.06;;;16.46
65600;BMP280;52272;-29.642;-50.764;2022-08-19T00:03:30;101653.84;;;16.22
65600;BMP280;52272;-29.642;-50.764;2022-08-19T00:06:00;101667.38;;;16.10
65600;BMP280;52272;-29.642;-50.764;2022-08-19T00:08:30;101668.16;;;16.10
65600;BMP280;52272;-29.642;-50.764;2022-08-19T00:11:01;101671.72;;;16.16
65600;BMP280;52272;-29.642;-50.764;2022-08-19T00:13:31;101670.13;;;16.37
65600;BMP280;52272;-29.642;-50.764;2022-08-19T00:16:04;101677.03;;;16.38
65600;BMP280;52272;-29.642;-50.764;2022-08-19T00:18:35;101685.22;;;16.25
65600;BMP280;52272;-29.642;-50.764;2022-08-19T00:21:05;101689.22;;;16.12
65600;BMP280;52272;-29.642;-50.764;2022-08-19T00:23:38;101691.19;;;16.38
65600;BMP280;52272;-29.642;-50.764;2022-08-19T00:26:09;101694.09;;;16.04
65600;BMP280;52272;-29.642;-50.764;2022-08-19T00:28:42;101695.28;;;16.03
65600;BMP280;52272;-29.642;-50.764;2022-08-19T00:31:12;101701.56;;;16.09
65600;BMP280;52272;-29.642;-50.764;2022-08-19T00:33:42;101707.09;;;16.06
65600;BMP280;52272;-29.642;-50.764;2022-08-19T00:36:13;101706.81;;;15.73
65600;BMP280;52272;-29.642;-50.764;2022-08-19T00:38:43;101710.75;;;15.60
65600;BMP280;52272;-29.642;-50.764;2022-08-19T00:41:15;101716.19;;;15.47
65600;BMP280;52272;-29.642;-50.764;2022-08-19T00:44:09;101723.94;;;15.45
65600;BMP280;52272;-29.642;-50.764;2022-08-19T00:46:43;101731.97;;;15.24
65600;BMP280;52272;-29.642;-50.764;2022-08-19T00:49:36;101733.31;;;15.07
65600;BMP280;52272;-29.642;-50.764;2022-08-19T00:52:16;101747.47;;;15.20
65600;BMP280;52272;-29.642;-50.764;2022-08-19T00:54:48;101752.66;;;15.02
65600;BMP280;52272;-29.642;-50.764;2022-08-19T00:57:28;101756.72;;;15.19
65600;BMP280;52272;-29.642;-50.764;2022-08-19T01:00:01;101758.34;;;15.38
65600;BMP280;52272;-29.642;-50.764;2022-08-19T01:02:32;101759.59;;;15.46
65600;BMP280;52272;-29.642;-50.764;2022-08-19T01:05:06;101769.78;;;15.17
65600;BMP280;52272;-29.642;-50.764;2022-08-19T01:07:39;101774.75;;;15.06
65600;BMP280;52272;-29.642;-50.764;2022-08-19T01:10:13;101766.97;;;14.86
65600;BMP280;52272;-29.642;-50.764;2022-08-19T01:12:46;101774.13;;;15.02
65600;BMP280;52272;-29.642;-50.764;2022-08-19T01:15:21;101771.44;;;15.02
65600;BMP280;52272;-29.642;-50.764;2022-08-19T01:17:53;101777.59;;;14.77
65600;BMP280;52272;-29.642;-50.764;2022-08-19T01:20:24;101777.28;;;14.63
65600;BMP280;52272;-29.642;-50.764;2022-08-19T01:22:58;101774.00;;;14.47
65600;BMP280;52272;-29.642;-50.764;2022-08-19T01:25:32;101777.41;;;14.47
65600;BMP280;52272;-29.642;-50.764;2022-08-19T01:28:07;101790.47;;;14.20
65600;BMP280;52272;-29.642;-50.764;2022-08-19T01:30:38;101788.56;;;13.92
65600;BMP280;52272;-29.642;-50.764;2022-08-19T01:33:18;101785.69;;;13.58
65600;BMP280;52272;-29.642;-50.764;2022-08-19T01:35:49;101794.91;;;13.41
65600;BMP280;52272;-29.642;-50.764;2022-08-19T01:38:24;101804.84;;;13.41
65600;BMP280;52272;-29.642;-50.764;2022-08-19T01:40:55;101810.97;;;13.41
65600;BMP280;52272;-29.642;-50.764;2022-08-19T01:43:25;101815.47;;;13.28
65600;BMP280;52272;-29.642;-50.764;2022-08-19T01:45:56;101815.91;;;13.11
65600;BMP280;52272;-29.642;-50.764;2022-08-19T01:48:26;101821.34;;;13.23
65600;BMP280;52272;-29.642;-50.764;2022-08-19T01:51:00;101820.66;;;13.03
65600;BMP280;52272;-29.642;-50.764;2022-08-19T01:53:30;101823.84;;;12.98
65600;BMP280;52272;-29.642;-50.764;2022-08-19T01:56:02;101823.16;;;12.78
65600;BMP280;52272;-29.642;-50.764;2022-08-19T01:58:38;101815.63;;;12.73
65600;BMP280;52272;-29.642;-50.764;2022-08-19T02:01:10;101827.84;;;12.74
65600;BMP280;52272;-29.642;-50.764;2022-08-19T02:03:40;101828.94;;;12.57
65600;BMP280;52272;-29.642;-50.764;2022-08-19T02:06:11;101826.84;;;12.84
65600;BMP280;52272;-29.642;-50.764;2022-08-19T02:08:41;101836.47;;;12.98
65600;BMP280;52272;-29.642;-50.764;2022-08-19T02:11:29;101839.53;;;12.80
65600;BMP280;52272;-29.642;-50.764;2022-08-19T02:14:06;101847.69;;;12.73
65600;BMP280;52272;-29.642;-50.764;2022-08-19T02:16:37;101846.94;;;12.37
65600;BMP280;52272;-29.642;-50.764;2022-08-19T02:19:07;101855.81;;;12.50
65600;BMP280;52272;-29.642;-50.764;2022-08-19T02:21:38;101852.06;;;12.48
65600;BMP280;52272;-29.642;-50.764;2022-08-19T02:24:08;101860.63;;;12.39
65600;BMP280;52272;-29.642;-50.764;2022-08-19T02:26:38;101858.84;;;12.52
65600;BMP280;52272;-29.642;-50.764;2022-08-19T02:29:10;101865.00;;;12.49
65600;BMP280;52272;-29.642;-50.764;2022-08-19T02:31:41;101876.72;;;12.75
65600;BMP280;52272;-29.642;-50.764;2022-08-19T02:34:11;101873.50;;;12.44
65600;BMP280;52272;-29.642;-50.764;2022-08-19T02:36:42;101872.78;;;12.79
65600;BMP280;52272;-29.642;-50.764;2022-08-19T02:39:19;101872.06;;;12.20
65600;BMP280;52272;-29.642;-50.764;2022-08-19T02:41:50;101873.03;;;12.69
65600;BMP280;52272;-29.642;-50.764;2022-08-19T02:44:21;101875.66;;;12.10
65600;BMP280;52272;-29.642;-50.764;2022-08-19T02:46:58;101868.56;;;12.23
65600;BMP280;52272;-29.642;-50.764;2022-08-19T02:49:28;101873.72;;;12.34
65600;BMP280;52272;-29.642;-50.764;2022-08-19T02:52:03;101882.66;;;12.24
65600;BMP280;52272;-29.642;-50.764;2022-08-19T02:54:33;101883.16;;;12.19
65600;BMP280;52272;-29.642;-50.764;2022-08-19T02:57:04;101883.25;;;11.69
65600;BMP280;52272;-29.642;-50.764;2022-08-19T02:59:35;101893.47;;;11.97
65600;BMP280;52272;-29.642;-50.764;2022-08-19T03:02:05;101895.56;;;11.63
65600;BMP280;52272;-29.642;-50.764;2022-08-19T03:04:36;101894.72;;;11.66
65600;BMP280;52272;-29.642;-50.764;2022-08-19T03:07:08;101893.25;;;11.65
65600;BMP280;52272;-29.642;-50.764;2022-08-19T03:09:38;101892.34;;;11.72
65600;BMP280;52272;-29.642;-50.764;2022-08-19T03:12:10;101894.03;;;11.62
65600;BMP280;52272;-29.642;-50.764;2022-08-19T03:14:41;101897.53;;;11.59
65600;BMP280;52272;-29.642;-50.764;2022-08-19T03:17:11;101903.56;;;11.37
65600;BMP280;52272;-29.642;-50.764;2022-08-19T03:19:42;101904.56;;;11.47
65600;BMP280;52272;-29.642;-50.764;2022-08-19T03:22:13;101908.72;;;10.95
65600;BMP280;52272;-29.642;-50.764;2022-08-19T03:24:44;101911.53;;;11.11
65600;BMP280;52272;-29.642;-50.764;2022-08-19T03:27:15;101912.69;;;10.80
65600;BMP280;52272;-29.642;-50.764;2022-08-19T03:29:46;101924.31;;;11.26
65600;BMP280;52272;-29.642;-50.764;2022-08-19T03:32:19;101926.47;;;11.35
65600;BMP280;52272;-29.642;-50.764;2022-08-19T03:35:00;101938.88;;;11.48
65600;BMP280;52272;-29.642;-50.764;2022-08-19T03:37:34;101944.59;;;11.47
65600;BMP280;52272;-29.642;-50.764;2022-08-19T03:40:04;101944.28;;;11.67
65600;BMP280;52272;-29.642;-50.764;2022-08-19T03:42:41;101957.03;;;11.57
65600;BMP280;52272;-29.642;-50.764;2022-08-19T03:45:25;101963.88;;;11.84
65600;BMP280;52272;-29.642;-50.764;2022-08-19T03:47:56;101957.28;;;11.65
65600;BMP280;52272;-29.642;-50.764;2022-08-19T03:50:26;101962.59;;;11.69
65600;BMP280;52272;-29.642;-50.764;2022-08-19T03:52:57;101965.16;;;11.50
65600;BMP280;52272;-29.642;-50.764;2022-08-19T03:55:29;101974.13;;;11.36
65600;BMP280;52272;-29.642;-50.764;2022-08-19T03:58:00;101970.22;;;11.11
65600;BMP280;52272;-29.642;-50.764;2022-08-19T04:00:30;101985.25;;;11.57
65600;BMP280;52272;-29.642;-50.764;2022-08-19T04:03:03;101980.38;;;11.23
65600;BMP280;52272;-29.642;-50.764;2022-08-19T04:05:33;101990.31;;;11.19
65600;BMP280;52272;-29.642;-50.764;2022-08-19T04:08:04;101984.09;;;11.58
65600;BMP280;52272;-29.642;-50.764;2022-08-19T04:10:41;101991.66;;;11.34
65600;BMP280;52272;-29.642;-50.764;2022-08-19T04:13:17;101991.03;;;11.52
65600;BMP280;52272;-29.642;-50.764;2022-08-19T04:15:48;101999.56;;;11.41
65600;BMP280;52272;-29.642;-50.764;2022-08-19T04:18:19;102007.31;;;11.32
65600;BMP280;52272;-29.642;-50.764;2022-08-19T04:20:51;102002.59;;;11.43
65600;BMP280;52272;-29.642;-50.764;2022-08-19T04:23:23;102009.16;;;11.64
65600;BMP280;52272;-29.642;-50.764;2022-08-19T04:25:54;102006.69;;;11.77
65600;BMP280;52272;-29.642;-50.764;2022-08-19T04:28:25;102012.94;;;11.67
65600;BMP280;52272;-29.642;-50.764;2022-08-19T04:30:55;102005.72;;;11.38
65600;BMP280;52272;-29.642;-50.764;2022-08-19T04:33:27;102016.72;;;11.43
65600;BMP280;52272;-29.642;-50.764;2022-08-19T04:36:00;102031.22;;;11.68
65600;BMP280;52272;-29.642;-50.764;2022-08-19T04:38:31;102022.97;;;11.30
65600;BMP280;52272;-29.642;-50.764;2022-08-19T04:41:03;102031.94;;;11.09
65600;BMP280;52272;-29.642;-50.764;2022-08-19T04:43:51;102040.63;;;11.17
65600;BMP280;52272;-29.642;-50.764;2022-08-19T04:46:22;102044.91;;;11.41
65600;BMP280;52272;-29.642;-50.764;2022-08-19T04:49:08;102047.94;;;11.13
65600;BMP280;52272;-29.642;-50.764;2022-08-19T04:51:43;102043.97;;;11.24
65600;BMP280;52272;-29.642;-50.764;2022-08-19T04:54:16;102045.25;;;11.13
65600;BMP280;52272;-29.642;-50.764;2022-08-19T04:57:09;102049.72;;;11.23
65600;BMP280;52272;-29.642;-50.764;2022-08-19T04:59:40;102057.56;;;11.03
65600;BMP280;52272;-29.642;-50.764;2022-08-19T05:02:10;102048.44;;;11.01
65600;BMP280;52272;-29.642;-50.764;2022-08-19T05:04:41;102052.63;;;10.98
65600;BMP280;52272;-29.642;-50.764;2022-08-19T05:07:12;102049.81;;;10.75
65600;BMP280;52272;-29.642;-50.764;2022-08-19T05:09:51;102058.81;;;10.92
65600;BMP280;52272;-29.642;-50.764;2022-08-19T05:12:28;102065.25;;;10.94
65600;BMP280;52272;-29.642;-50.764;2022-08-19T05:15:01;102052.25;;;10.56
65600;BMP280;52272;-29.642;-50.764;2022-08-19T05:17:32;102065.44;;;11.14
65600;BMP280;52272;-29.642;-50.764;2022-08-19T05:20:08;102078.88;;;11.03
65600;BMP280;52272;-29.642;-50.764;2022-08-19T05:23:17;102085.13;;;11.27
65600;BMP280;52272;-29.642;-50.764;2022-08-19T05:25:51;102093.84;;;11.60
65600;BMP280;52272;-29.642;-50.764;2022-08-19T05:28:21;102094.66;;;11.57
65600;BMP280;52272;-29.642;-50.764;2022-08-19T05:30:52;102096.22;;;11.55
65600;BMP280;52272;-29.642;-50.764;2022-08-19T05:33:25;102093.06;;;11.63
65600;BMP280;52272;-29.642;-50.764;2022-08-19T05:35:55;102102.91;;;11.66
65600;BMP280;52272;-29.642;-50.764;2022-08-19T05:38:26;102103.66;;;12.00
65600;BMP280;52272;-29.642;-50.764;2022-08-19T05:40:57;102093.75;;;11.97
65600;BMP280;52272;-29.642;-50.764;2022-08-19T05:43:28;102091.19;;;11.90
65600;BMP280;52272;-29.642;-50.764;2022-08-19T05:45:59;102101.63;;;12.08
65600;BMP280;52272;-29.642;-50.764;2022-08-19T05:48:29;102104.88;;;12.45
65600;BMP280;52272;-29.642;-50.764;2022-08-19T05:51:05;102098.13;;;12.37
65600;BMP280;52272;-29.642;-50.764;2022-08-19T05:53:36;102103.13;;;12.58
65600;BMP280;52272;-29.642;-50.764;2022-08-19T05:56:09;102097.75;;;12.58
65600;BMP280;52272;-29.642;-50.764;2022-08-19T05:58:40;102098.22;;;12.30
65600;BMP280;52272;-29.642;-50.764;2022-08-19T06:01:17;102106.44;;;12.43
65600;BMP280;52272;-29.642;-50.764;2022-08-19T06:03:48;102115.38;;;12.33
65600;BMP280;52272;-29.642;-50.764;2022-08-19T06:06:19;102109.88;;;12.17
65600;BMP280;52272;-29.642;-50.764;2022-08-19T06:08:50;102100.84;;;12.07
65600;BMP280;52272;-29.642;-50.764;2022-08-19T06:11:30;102108.78;;;12.14
65600;BMP280;52272;-29.642;-50.764;2022-08-19T06:14:14;102092.50;;;12.05
65600;BMP280;52272;-29.642;-50.764;2022-08-19T06:16:45;102106.31;;;12.00
65600;BMP280;52272;-29.642;-50.764;2022-08-19T06:19:16;102114.13;;;11.84
65600;BMP280;52272;-29.642;-50.764;2022-08-19T06:21:48;102105.31;;;11.91
65600;BMP280;52272;-29.642;-50.764;2022-08-19T06:24:23;102116.47;;;12.09
65600;BMP280;52272;-29.642;-50.764;2022-08-19T06:26:55;102122.91;;;12.15
65600;BMP280;52272;-29.642;-50.764;2022-08-19T06:29:29;102122.63;;;12.32
65600;BMP280;52272;-29.642;-50.764;2022-08-19T06:32:02;102111.25;;;12.28
65600;BMP280;52272;-29.642;-50.764;2022-08-19T06:34:34;102114.25;;;12.30
65600;BMP280;52272;-29.642;-50.764;2022-08-19T06:37:05;102112.41;;;12.27
65600;BMP280;52272;-29.642;-50.764;2022-08-19T06:39:37;102118.19;;;12.49
65600;BMP280;52272;-29.642;-50.764;2022-08-19T06:42:08;102122.03;;;12.48
65600;BMP280;52272;-29.642;-50.764;2022-08-19T06:44:43;102119.25;;;12.55
65600;BMP280;52272;-29.642;-50.764;2022-08-19T06:47:19;102126.81;;;12.33
65600;BMP280;52272;-29.642;-50.764;2022-08-19T06:49:57;102135.38;;;12.48
65600;BMP280;52272;-29.642;-50.764;2022-08-19T06:52:34;102132.28;;;12.49
65600;BMP280;52272;-29.642;-50.764;2022-08-19T06:55:06;102138.19;;;12.11
65600;BMP280;52272;-29.642;-50.764;2022-08-19T06:57:36;102133.50;;;12.22
65600;BMP280;52272;-29.642;-50.764;2022-08-19T07:00:06;102136.75;;;12.06
65600;BMP280;52272;-29.642;-50.764;2022-08-19T07:02:43;102141.53;;;11.88
65600;BMP280;52272;-29.642;-50.764;2022-08-19T07:05:24;102146.09;;;11.61
65600;BMP280;52272;-29.642;-50.764;2022-08-19T07:07:55;102145.31;;;11.61
65600;BMP280;52272;-29.642;-50.764;2022-08-19T07:10:32;102137.69;;;11.93
65600;BMP280;52272;-29.642;-50.764;2022-08-19T07:13:03;102141.91;;;11.24
65600;BMP280;52272;-29.642;-50.764;2022-08-19T07:15:36;102128.63;;;11.53
65600;BMP280;52272;-29.642;-50.764;2022-08-19T07:18:07;102143.28;;;11.72
65600;BMP280;52272;-29.642;-50.764;2022-08-19T07:20:40;102140.94;;;11.77
65600;BMP280;52272;-29.642;-50.764;2022-08-19T07:23:11;102143.25;;;11.75
65600;BMP280;52272;-29.642;-50.764;2022-08-19T07:25:44;102149.25;;;11.83
65600;BMP280;52272;-29.642;-50.764;2022-08-19T07:28:21;102153.22;;;11.71
65600;BMP280;52272;-29.642;-50.764;2022-08-19T07:30:52;102135.06;;;11.89
65600;BMP280;52272;-29.642;-50.764;2022-08-19T07:33:22;102164.53;;;11.82
65600;BMP280;52272;-29.642;-50.764;2022-08-19T07:35:55;102168.16;;;11.95
65600;BMP280;52272;-29.642;-50.764;2022-08-19T07:38:25;102167.00;;;11.96
65600;BMP280;52272;-29.642;-50.764;2022-08-19T07:40:56;102166.31;;;11.92
65600;BMP280;52272;-29.642;-50.764;2022-08-19T07:43:27;102167.66;;;11.74
65600;BMP280;52272;-29.642;-50.764;2022-08-19T07:46:02;102164.41;;;11.59
65600;BMP280;52272;-29.642;-50.764;2022-08-19T07:48:33;102171.53;;;11.69
65600;BMP280;52272;-29.642;-50.764;2022-08-19T07:51:05;102174.06;;;11.47
65600;BMP280;52272;-29.642;-50.764;2022-08-19T07:53:38;102168.56;;;11.64
65600;BMP280;52272;-29.642;-50.764;2022-08-19T07:56:07;102171.88;;;11.42
65600;BMP280;52272;-29.642;-50.764;2022-08-19T07:58:42;102176.78;;;11.03
65600;BMP280;52272;-29.642;-50.764;2022-08-19T08:01:16;102174.59;;;10.87
65600;BMP280;52272;-29.642;-50.764;2022-08-19T08:03:48;102174.78;;;10.66
65600;BMP280;52272;-29.642;-50.764;2022-08-19T08:06:38;102179.69;;;10.71
65600;BMP280;52272;-29.642;-50.764;2022-08-19T08:09:30;102168.81;;;10.48
65600;BMP280;52272;-29.642;-50.764;2022-08-19T08:12:05;102161.94;;;10.51
65600;BMP280;52272;-29.642;-50.764;2022-08-19T08:15:00;102165.13;;;10.28
65600;BMP280;52272;-29.642;-50.764;2022-08-19T08:17:36;102170.00;;;10.37
65600;BMP280;52272;-29.642;-50.764;2022-08-19T08:20:19;102173.38;;;10.51
65600;BMP280;52272;-29.642;-50.764;2022-08-19T08:22:49;102187.06;;;10.50
65600;BMP280;52272;-29.642;-50.764;2022-08-19T08:25:38;102177.97;;;10.44
65600;BMP280;52272;-29.642;-50.764;2022-08-19T08:28:08;102164.69;;;10.30
65600;BMP280;52272;-29.642;-50.764;2022-08-19T08:30:47;102193.00;;;10.71
65600;BMP280;52272;-29.642;-50.764;2022-08-19T08:33:23;102200.72;;;11.10
65600;BMP280;52272;-29.642;-50.764;2022-08-19T08:36:05;102203.31;;;11.20
65600;BMP280;52272;-29.642;-50.764;2022-08-19T08:38:38;102200.31;;;11.15
65600;BMP280;52272;-29.642;-50.764;2022-08-19T08:43:59;102194.56;;;11.20
65600;BMP280;52272;-29.642;-50.764;2022-08-19T08:46:38;102201.00;;;11.22
65600;BMP280;52272;-29.642;-50.764;2022-08-19T08:52:07;102204.13;;;11.14
65600;BMP280;52272;-29.642;-50.764;2022-08-19T08:54:44;102207.44;;;11.25
65600;BMP280;52272;-29.642;-50.764;2022-08-19T08:57:44;102210.44;;;11.34
65600;BMP280;52272;-29.642;-50.764;2022-08-19T09:00:31;102213.81;;;11.38
65600;BMP280;52272;-29.642;-50.764;2022-08-19T09:03:03;102215.66;;;11.44
65600;BMP280;52272;-29.642;-50.764;2022-08-19T09:05:55;102222.09;;;11.47
65600;BMP280;52272;-29.642;-50.764;2022-08-19T09:11:57;102231.16;;;11.16
65600;BMP280;52272;-29.642;-50.764;2022-08-19T09:14:31;102222.50;;;11.05
65600;BMP280;52272;-29.642;-50.764;2022-08-19T09:17:25;102233.22;;;10.98
65600;BMP280;52272;-29.642;-50.764;2022-08-19T09:20:03;102241.16;;;11.05
65600;BMP280;52272;-29.642;-50.764;2022-08-19T09:22:39;102251.50;;;10.96
65600;BMP280;52272;-29.642;-50.764;2022-08-19T09:25:13;102248.13;;;10.88
65600;BMP280;52272;-29.642;-50.764;2022-08-19T09:27:55;102247.91;;;10.65
65600;BMP280;52272;-29.642;-50.764;2022-08-19T09:30:41;102256.28;;;10.64
65600;BMP280;52272;-29.642;-50.764;2022-08-19T09:33:11;102271.53;;;10.60
65600;BMP280;52272;-29.642;-50.764;2022-08-19T09:35:42;102273.47;;;10.45
65600;BMP280;52272;-29.642;-50.764;2022-08-19T09:38:21;102282.59;;;10.48
65600;BMP280;52272;-29.642;-50.764;2022-08-19T09:40:52;102282.63;;;10.51
65600;BMP280;52272;-29.642;-50.764;2022-08-19T09:43:23;102283.03;;;10.36
65600;BMP280;52272;-29.642;-50.764;2022-08-19T09:46:02;102286.47;;;10.36
65600;BMP280;52272;-29.642;-50.764;2022-08-19T09:48:34;102284.56;;;10.33
65600;BMP280;52272;-29.642;-50.764;2022-08-19T09:51:11;102293.00;;;10.11
65600;BMP280;52272;-29.642;-50.764;2022-08-19T09:53:50;102305.94;;;10.09
65600;BMP280;52272;-29.642;-50.764;2022-08-19T09:56:22;102299.06;;;10.25
65600;BMP280;52272;-29.642;-50.764;2022-08-19T09:58:52;102302.19;;;9.92
65600;BMP280;52272;-29.642;-50.764;2022-08-19T10:01:23;102310.53;;;10.12
65600;BMP280;52272;-29.642;-50.764;2022-08-19T10:03:55;102315.09;;;10.01
65600;BMP280;52272;-29.642;-50.764;2022-08-19T10:06:28;102319.66;;;10.00
65600;BMP280;52272;-29.642;-50.764;2022-08-19T10:09:16;102322.72;;;9.85
65600;BMP280;52272;-29.642;-50.764;2022-08-19T10:12:03;102325.78;;;9.87
65600;BMP280;52272;-29.642;-50.764;2022-08-19T10:14:38;102329.88;;;10.12
65600;BMP280;52272;-29.642;-50.764;2022-08-19T10:17:09;102337.16;;;9.84
65600;BMP280;52272;-29.642;-50.764;2022-08-19T10:19:48;102326.84;;;10.07
65600;BMP280;52272;-29.642;-50.764;2022-08-19T10:22:26;102341.66;;;10.22
65600;BMP280;52272;-29.642;-50.764;2022-08-19T10:24:58;102355.34;;;10.38
65600;BMP280;52272;-29.642;-50.764;2022-08-19T10:27:29;102353.38;;;10.56
65600;BMP280;52272;-29.642;-50.764;2022-08-19T10:30:03;102354.75;;;10.85
65600;BMP280;52272;-29.642;-50.764;2022-08-19T10:32:38;102362.94;;;11.29
65600;BMP280;52272;-29.642;-50.764;2022-08-19T10:35:14;102365.81;;;11.44
65600;BMP280;52272;-29.642;-50.764;2022-08-19T10:37:49;102362.19;;;11.75
65600;BMP280;52272;-29.642;-50.764;2022-08-19T10:40:28;102384.50;;;12.32
65600;BMP280;52272;-29.642;-50.764;2022-08-19T10:42:58;102386.47;;;12.62
65600;BMP280;52272;-29.642;-50.764;2022-08-19T10:45:28;102393.00;;;12.57
65600;BMP280;52272;-29.642;-50.764;2022-08-19T10:48:00;102401.19;;;13.03
65600;BMP280;52272;-29.642;-50.764;2022-08-19T10:50:31;102404.78;;;13.20
65600;BMP280;52272;-29.642;-50.764;2022-08-19T10:53:20;102412.69;;;13.99
65600;BMP280;52272;-29.642;-50.764;2022-08-19T10:55:54;102416.28;;;14.12
65600;BMP280;52272;-29.642;-50.764;2022-08-19T10:58:43;102421.50;;;14.58
65600;BMP280;52272;-29.642;-50.764;2022-08-19T11:01:14;102428.13;;;15.05
65600;BMP280;52272;-29.642;-50.764;2022-08-19T11:03:44;102425.94;;;15.00
65600;BMP280;52272;-29.642;-50.764;2022-08-19T11:06:15;102433.22;;;15.19
65600;BMP280;52272;-29.642;-50.764;2022-08-19T11:08:45;102428.97;;;15.66
65600;BMP280;52272;-29.642;-50.764;2022-08-19T11:11:15;102422.59;;;15.60
65600;BMP280;52272;-29.642;-50.764;2022-08-19T11:13:46;102421.34;;;15.64
65600;BMP280;52272;-29.642;-50.764;2022-08-19T11:16:19;102428.63;;;15.80
65600;BMP280;52272;-29.642;-50.764;2022-08-19T11:18:54;102447.59;;;16.17
65600;BMP280;52272;-29.642;-50.764;2022-08-19T11:21:27;102447.88;;;16.48
65600;BMP280;52272;-29.642;-50.764;2022-08-19T11:24:00;102457.91;;;16.84
65600;BMP280;52272;-29.642;-50.764;2022-08-19T11:26:31;102455.03;;;17.16
65600;BMP280;52272;-29.642;-50.764;2022-08-19T11:29:02;102459.84;;;17.68
65600;BMP280;52272;-29.642;-50.764;2022-08-19T11:31:34;102460.16;;;17.82
65600;BMP280;52272;-29.642;-50.764;2022-08-19T11:34:09;102464.75;;;18.03
65600;BMP280;52272;-29.642;-50.764;2022-08-19T11:36:42;102479.81;;;18.13
65600;BMP280;52272;-29.642;-50.764;2022-08-19T11:39:17;102474.56;;;18.10
65600;BMP280;52272;-29.642;-50.764;2022-08-19T11:41:48;102481.72;;;18.04
65600;BMP280;52272;-29.642;-50.764;2022-08-19T11:44:19;102489.53;;;17.89
65600;BMP280;52272;-29.642;-50.764;2022-08-19T11:46:50;102484.59;;;17.88
65600;BMP280;52272;-29.642;-50.764;2022-08-19T11:49:22;102485.31;;;17.67
65600;BMP280;52272;-29.642;-50.764;2022-08-19T11:51:52;102488.81;;;17.55
65600;BMP280;52272;-29.642;-50.764;2022-08-19T11:54:24;102492.69;;;17.54
65600;BMP280;52272;-29.642;-50.764;2022-08-19T11:56:54;102498.28;;;17.93
65600;BMP280;52272;-29.642;-50.764;2022-08-19T11:59:29;102505.41;;;18.09
65600;BMP280;52272;-29.642;-50.764;2022-08-19T12:01:59;102503.91;;;18.29
65600;BMP280;52272;-29.642;-50.764;2022-08-19T12:04:30;102521.09;;;18.44
65600;BMP280;52272;-29.642;-50.764;2022-08-19T12:07:00;102520.06;;;17.52
65600;BMP280;52272;-29.642;-50.764;2022-08-19T12:09:31;102522.75;;;17.52
65600;BMP280;52272;-29.642;-50.764;2022-08-19T12:12:11;102527.19;;;17.34
65600;BMP280;52272;-29.642;-50.764;2022-08-19T12:14:41;102526.31;;;17.49
65600;BMP280;52272;-29.642;-50.764;2022-08-19T12:17:12;102543.38;;;17.80
65600;BMP280;52272;-29.642;-50.764;2022-08-19T12:19:46;102540.03;;;17.89
65600;BMP280;52272;-29.642;-50.764;2022-08-19T12:22:16;102535.59;;;17.48
65600;BMP280;52272;-29.642;-50.764;2022-08-19T12:24:48;102546.84;;;17.93
65600;BMP280;52272;-29.642;-50.764;2022-08-19T12:27:20;102557.38;;;18.22
65600;BMP280;52272;-29.642;-50.764;2022-08-19T12:30:10;102550.13;;;18.52
65600;BMP280;52272;-29.642;-50.764;2022-08-19T12:32:44;102555.75;;;18.24
65600;BMP280;52272;-29.642;-50.764;2022-08-19T12:35:15;102552.88;;;18.19
65600;BMP280;52272;-29.642;-50.764;2022-08-19T12:37:48;102540.09;;;18.53
65600;BMP280;52272;-29.642;-50.764;2022-08-19T12:40:25;102551.97;;;18.00
65600;BMP280;52272;-29.642;-50.764;2022-08-19T12:42:56;102548.63;;;17.96
65600;BMP280;52272;-29.642;-50.764;2022-08-19T12:45:27;102560.91;;;18.10
65600;BMP280;52272;-29.642;-50.764;2022-08-19T12:47:58;102566.94;;;18.35
65600;BMP280;52272;-29.642;-50.764;2022-08-19T12:50:48;102560.78;;;17.67
65600;BMP280;52272;-29.642;-50.764;2022-08-19T12:53:18;102549.56;;;16.81
65600;BMP280;52272;-29.642;-50.764;2022-08-19T12:55:58;102560.34;;;16.93
65600;BMP280;52272;-29.642;-50.764;2022-08-19T12:58:29;102564.31;;;17.76
65600;BMP280;52272;-29.642;-50.764;2022-08-19T13:01:14;102567.16;;;18.49
65600;BMP280;52272;-29.642;-50.764;2022-08-19T13:03:53;102559.28;;;18.12
65600;BMP280;52272;-29.642;-50.764;2022-08-19T13:06:24;102564.75;;;18.21
65600;BMP280;52272;-29.642;-50.764;2022-08-19T13:08:57;102562.22;;;18.48
65600;BMP280;52272;-29.642;-50.764;2022-08-19T13:11:28;102570.31;;;18.48
65600;BMP280;52272;-29.642;-50.764;2022-08-19T13:14:04;102562.50;;;18.93
65600;BMP280;52272;-29.642;-50.764;2022-08-19T13:16:39;102568.84;;;19.08
65600;BMP280;52272;-29.642;-50.764;2022-08-19T13:19:13;102569.41;;;19.03
65600;BMP280;52272;-29.642;-50.764;2022-08-19T13:21:55;102564.88;;;18.39
65600;BMP280;52272;-29.642;-50.764;2022-08-19T13:24:30;102561.69;;;18.83
65600;BMP280;52272;-29.642;-50.764;2022-08-19T13:27:04;102561.94;;;18.76
65600;BMP280;52272;-29.642;-50.764;2022-08-19T13:29:40;102572.50;;;18.41
65600;BMP280;52272;-29.642;-50.764;2022-08-19T13:32:30;102551.78;;;19.29
65600;BMP280;52272;-29.642;-50.764;2022-08-19T13:35:22;102572.31;;;20.28
65600;BMP280;52272;-29.642;-50.764;2022-08-19T13:37:53;102573.53;;;20.01
65600;BMP280;52272;-29.642;-50.764;2022-08-19T13:40:28;102583.44;;;19.86
65600;BMP280;52272;-29.642;-50.764;2022-08-19T13:43:07;102580.16;;;19.91
65600;BMP280;52272;-29.642;-50.764;2022-08-19T13:45:54;102581.00;;;20.32
65600;BMP280;52272;-29.642;-50.764;2022-08-19T13:48:28;102584.66;;;20.29
65600;BMP280;52272;-29.642;-50.764;2022-08-19T13:51:04;102588.22;;;20.35
65600;BMP280;52272;-29.642;-50.764;2022-08-19T13:53:39;102575.44;;;20.54
65600;BMP280;52272;-29.642;-50.764;2022-08-19T13:56:20;102584.03;;;19.72
65600;BMP280;52272;-29.642;-50.764;2022-08-19T13:58:55;102592.38;;;20.54
65600;BMP280;52272;-29.642;-50.764;2022-08-19T14:01:28;102591.84;;;20.06
65600;BMP280;52272;-29.642;-50.764;2022-08-19T14:04:07;102582.47;;;20.60
65600;BMP280;52272;-29.642;-50.764;2022-08-19T14:06:38;102591.53;;;20.39
65600;BMP280;52272;-29.642;-50.764;2022-08-19T14:09:09;102587.00;;;21.28